Terminal Aerodrome Forecast
Issued by NWS

Home | Current Version | Previous Version | Graphics & Text | Print | Product List | Glossary On
Versions: 1 2 3 4 5 6 7 8 9 10 11 12 13 14 15
000
FTUS43 KICT 182300
TAFHUT
TAF
KHUT 182320Z 1900/1924 17015G20KT P6SM SKC
     FM190100 14007KT P6SM SKC
     FM190700 16006KT 4SM BR SCT010
     FM191500 20010KT P6SM FEW250
     FM191800 19015G22KT P6SM SKC=

USA.gov is the U.S. government's official web portal to all federal, state and local government web resources and services.